createdAt,value
2022-08-22T00:04:54.441Z,1.55
2022-08-22T00:25:25.745Z,1.50
2022-08-22T00:45:47.786Z,2.72
2022-08-22T01:06:07.039Z,1.20
2022-08-22T01:26:44.917Z,0.93
2022-08-22T01:47:07.549Z,2.35
2022-08-22T02:07:16.997Z,1.20
2022-08-22T02:27:23.775Z,1.17
2022-08-22T02:47:40.394Z,1.35
2022-08-22T03:07:49.340Z,1.77
2022-08-22T03:28:12.937Z,1.65
2022-08-22T03:48:43.724Z,1.80
2022-08-22T04:09:06.100Z,2.30
2022-08-22T04:29:15.931Z,2.17
2022-08-22T04:49:29.694Z,2.33
2022-08-22T05:09:37.652Z,3.12
2022-08-22T05:29:43.318Z,3.20
2022-08-22T05:49:53.743Z,3.40
2022-08-22T06:10:15.518Z,4.37
2022-08-22T06:30:20.517Z,5.60
2022-08-22T06:50:34.924Z,5.55
2022-08-22T07:10:54.855Z,6.00
2022-08-22T07:31:01.724Z,6.50
2022-08-22T07:51:14.160Z,6.87
2022-08-22T08:11:19.078Z,6.32
2022-08-22T08:31:28.716Z,5.55
2022-08-22T08:51:53.825Z,4.70
2022-08-22T09:12:23.776Z,5.07
2022-08-22T09:32:49.546Z,6.68
2022-08-22T09:53:08.077Z,6.43
2022-08-22T10:13:14.154Z,5.53
2022-08-22T10:33:29.561Z,5.25
2022-08-22T10:53:48.587Z,6.68
2022-08-22T11:14:12.723Z,6.00
2022-08-22T11:35:09.412Z,6.18
2022-08-22T11:55:45.517Z,6.87
2022-08-22T12:15:57.986Z,5.27
2022-08-22T12:36:18.713Z,6.97
2022-08-22T12:56:50.897Z,7.37
2022-08-22T13:17:10.142Z,8.67
2022-08-22T13:37:36.369Z,9.35
2022-08-22T13:57:51.805Z,8.05
2022-08-22T14:17:58.983Z,21.80
2022-08-22T14:38:33.219Z,7.87
2022-08-22T14:58:46.387Z,3.37
2022-08-22T15:18:56.036Z,2.17
2022-08-22T15:39:27.301Z,2.90
2022-08-22T15:59:53.895Z,2.08
2022-08-22T16:20:15.811Z,2.03
2022-08-22T16:40:26.255Z,1.53
2022-08-22T17:00:41.320Z,1.90
2022-08-22T17:20:55.441Z,1.52
2022-08-22T17:41:08.291Z,1.92
2022-08-22T18:01:37.297Z,1.33
2022-08-22T18:22:04.982Z,1.00
2022-08-22T18:42:18.857Z,1.12
2022-08-22T19:02:51.159Z,1.00
2022-08-22T19:23:40.888Z,1.42
2022-08-22T19:43:44.735Z,1.30
2022-08-22T20:03:53.895Z,0.73
2022-08-22T20:23:58.213Z,1.40
2022-08-22T20:44:17.071Z,1.50
2022-08-22T21:04:22.267Z,1.77
2022-08-22T21:24:25.639Z,2.23
2022-08-22T21:44:35.070Z,2.37
2022-08-22T22:04:59.552Z,1.65
2022-08-22T22:25:06.266Z,2.00
2022-08-22T22:45:30.101Z,2.97
2022-08-22T23:05:33.885Z,3.60
2022-08-22T23:25:37.373Z,3.37
2022-08-22T23:45:40.655Z,3.25
